Time;durP1;ratioP1;P1;durP2;ratioP2;P2;SDS_P1;SDS_P2;PMS_P1;PMS_P2;Temp;Humidity;BMP_temperature;BMP_pressure;BME280_temperature;BME280_humidity;BME280_pressure;Samples;Min_cycle;Max_cycle;Signal;HPM_P1;HPM_P2
2023/07/11 00:00:04;;;;;;;4.43;2.33;;;20.60;85.80;;;;;;5086793;28;20483;-72
2023/07/11 00:02:29;;;;;;;4.90;2.50;;;20.50;86.60;;;;;;5065307;28;20443;-72
2023/07/11 00:04:56;;;;;;;3.30;2.07;;;20.50;86.90;;;;;;5098269;28;20784;-73
2023/07/11 00:07:22;;;;;;;5.07;2.30;;;20.50;86.50;;;;;;5098363;28;20224;-72
2023/07/11 00:09:48;;;;;;;4.10;2.53;;;20.50;86.90;;;;;;5098388;28;20487;-72
2023/07/11 00:12:15;;;;;;;3.30;2.23;;;20.40;86.70;;;;;;5098201;28;20184;-72
2023/07/11 00:14:41;;;;;;;6.43;3.00;;;20.40;87.10;;;;;;5094537;28;20706;-72
2023/07/11 00:17:07;;;;;;;7.00;2.73;;;20.40;86.90;;;;;;5063006;28;20436;-73
2023/07/11 00:19:51;;;;;;;3.70;2.33;;;20.40;86.80;;;;;;5097601;28;20430;-72
2023/07/11 00:22:18;;;;;;;4.00;2.27;;;20.30;86.90;;;;;;5098231;28;20460;-71
2023/07/11 00:24:44;;;;;;;5.20;2.27;;;20.30;87.30;;;;;;5098594;28;20401;-73
2023/07/11 00:27:10;;;;;;;9.23;2.40;;;20.20;88.10;;;;;;5097633;28;20461;-73
2023/07/11 00:29:36;;;;;;;5.83;2.40;;;20.20;88.70;;;;;;5095051;28;20220;-73
2023/07/11 00:32:03;;;;;;;6.87;2.43;;;20.10;89.20;;;;;;5063510;28;20444;-72
2023/07/11 00:34:29;;;;;;;3.87;2.53;;;20.10;90.40;;;;;;5067863;28;20706;-72
2023/07/11 00:36:55;;;;;;;4.60;2.80;;;20.00;90.80;;;;;;5097274;28;20427;-72
2023/07/11 00:39:20;;;;;;;5.80;2.67;;;20.00;91.40;;;;;;5096854;28;20427;-72
2023/07/11 00:41:46;;;;;;;2.33;2.10;;;20.00;91.50;;;;;;5097389;28;20234;-72
2023/07/11 00:44:15;;;;;;;5.40;3.33;;;19.90;91.50;;;;;;5098321;28;20225;-72
2023/07/11 00:46:41;;;;;;;4.27;2.33;;;19.90;91.80;;;;;;5073369;28;20415;-73
2023/07/11 00:49:10;;;;;;;2.73;2.40;;;19.90;92.20;;;;;;5093717;28;20414;-72
2023/07/11 00:51:50;;;;;;;3.80;2.53;;;19.80;92.50;;;;;;5096771;28;20414;-71
2023/07/11 00:54:19;;;;;;;4.13;3.00;;;19.80;92.90;;;;;;5057311;28;20419;-72
2023/07/11 00:56:46;;;;;;;3.90;2.57;;;19.70;93.50;;;;;;5059219;28;20571;-72
2023/07/11 00:59:15;;;;;;;2.77;2.10;;;19.70;93.90;;;;;;5096786;28;20542;-72
2023/07/11 01:01:45;;;;;;;3.53;2.40;;;19.70;94.20;;;;;;5056572;28;20581;-72
2023/07/11 01:04:14;;;;;;;7.17;2.83;;;19.70;94.50;;;;;;5093620;28;20516;-72
2023/07/11 01:06:40;;;;;;;5.73;2.93;;;19.60;94.80;;;;;;5078156;28;20448;-72
2023/07/11 01:09:06;;;;;;;4.80;2.70;;;19.60;94.90;;;;;;5096817;28;20406;-73
2023/07/11 01:11:59;;;;;;;5.90;2.83;;;19.60;95.10;;;;;;5096891;28;20177;-72
2023/07/11 01:14:26;;;;;;;5.57;2.10;;;19.60;95.30;;;;;;5096310;28;20196;-72
2023/07/11 01:16:51;;;;;;;4.27;2.80;;;19.50;95.70;;;;;;5042181;28;20420;-72
2023/07/11 01:19:20;;;;;;;6.03;2.47;;;19.50;95.90;;;;;;5078418;28;20434;-72
2023/07/11 01:21:46;;;;;;;3.07;2.60;;;19.50;96.40;;;;;;5077986;28;20429;-71
2023/07/11 01:24:12;;;;;;;5.03;2.67;;;19.50;96.60;;;;;;5096739;28;20856;-71
2023/07/11 01:26:38;;;;;;;3.47;2.40;;;19.40;96.90;;;;;;5096865;28;20252;-72
2023/07/11 01:29:05;;;;;;;3.67;2.43;;;19.30;97.20;;;;;;5096151;28;20453;-71
2023/07/11 01:31:34;;;;;;;3.17;1.90;;;19.30;97.50;;;;;;5068450;28;20484;-72
2023/07/11 01:34:04;;;;;;;4.50;2.60;;;19.30;97.90;;;;;;5052015;28;20741;-72
2023/07/11 01:36:30;;;;;;;2.63;2.20;;;19.20;98.20;;;;;;5078978;28;20542;-71
2023/07/11 01:38:57;;;;;;;3.67;2.17;;;19.20;98.60;;;;;;5095581;28;20578;-73
2023/07/11 01:41:23;;;;;;;3.50;2.70;;;19.20;98.90;;;;;;5096753;28;20223;-71
2023/07/11 01:43:49;;;;;;;3.40;2.60;;;19.20;99.80;;;;;;5096399;28;20402;-72
2023/07/11 01:46:15;;;;;;;3.00;2.60;;;19.20;99.90;;;;;;5078565;28;20436;-73
2023/07/11 01:48:40;;;;;;;6.40;2.33;;;19.10;99.90;;;;;;5099122;28;20575;-72
2023/07/11 01:51:06;;;;;;;3.57;2.53;;;19.10;99.90;;;;;;5096351;28;20575;-71
2023/07/11 01:53:31;;;;;;;2.50;2.13;;;19.00;99.90;;;;;;5096698;28;20199;-73
2023/07/11 01:55:59;;;;;;;4.37;2.33;;;19.00;99.90;;;;;;5096077;28;20195;-73
2023/07/11 01:58:26;;;;;;;4.47;2.07;;;19.00;99.90;;;;;;5078472;28;20640;-73
2023/07/11 02:00:52;;;;;;;2.20;1.90;;;19.00;99.90;;;;;;5062528;28;20494;-74
2023/07/11 02:03:18;;;;;;;3.80;2.13;;;18.90;99.90;;;;;;5084582;28;20901;-72
2023/07/11 02:05:43;;;;;;;2.87;2.27;;;18.90;99.90;;;;;;5076032;28;20193;-72
2023/07/11 02:08:09;;;;;;;2.43;2.20;;;18.90;99.90;;;;;;5091786;28;20607;-72
2023/07/11 02:10:35;;;;;;;3.77;2.53;;;18.90;99.90;;;;;;5095113;28;20336;-72
2023/07/11 02:13:00;;;;;;;3.93;2.23;;;18.90;99.90;;;;;;5095956;28;20868;-72
2023/07/11 02:15:39;;;;;;;4.50;2.50;;;18.80;99.90;;;;;;5082692;28;20188;-72
2023/07/11 02:18:05;;;;;;;5.50;2.70;;;18.80;99.90;;;;;;5055379;28;20831;-73
2023/07/11 02:20:31;;;;;;;3.73;2.50;;;18.80;99.90;;;;;;5095675;28;20456;-72
2023/07/11 02:22:59;;;;;;;4.87;2.97;;;18.80;99.90;;;;;;5095992;28;20187;-72
2023/07/11 02:25:25;;;;;;;3.53;2.93;;;18.80;99.90;;;;;;5095462;28;20213;-73
2023/07/11 02:27:51;;;;;;;6.20;3.10;;;18.80;99.90;;;;;;5095593;28;20879;-72
2023/07/11 02:30:16;;;;;;;3.33;2.87;;;18.80;99.90;;;;;;5086457;28;20204;-71
2023/07/11 02:32:42;;;;;;;6.57;2.83;;;18.80;99.90;;;;;;5076985;28;20251;-72
2023/07/11 02:35:08;;;;;;;5.77;3.10;;;18.70;99.90;;;;;;5095663;28;20215;-71
2023/07/11 02:37:34;;;;;;;5.10;2.50;;;18.70;99.90;;;;;;5095209;28;20405;-72
2023/07/11 02:39:59;;;;;;;4.00;2.93;;;18.60;99.90;;;;;;5095223;28;20446;-72
2023/07/11 02:42:25;;;;;;;5.67;3.30;;;18.60;99.90;;;;;;5095131;28;20187;-72
2023/07/11 02:44:50;;;;;;;7.10;3.50;;;18.60;99.90;;;;;;5091355;28;20207;-72
2023/07/11 02:47:16;;;;;;;6.37;3.57;;;18.50;99.90;;;;;;5088624;28;20227;-74
2023/07/11 02:49:42;;;;;;;3.40;2.80;;;18.50;99.90;;;;;;5095180;28;20593;-72
2023/07/11 02:52:09;;;;;;;5.07;3.27;;;18.50;99.90;;;;;;5095447;28;20174;-72
2023/07/11 02:54:36;;;;;;;7.10;3.80;;;18.50;99.90;;;;;;5095436;28;20195;-72
2023/07/11 02:57:06;;;;;;;3.63;2.50;;;18.40;99.90;;;;;;5095675;28;20428;-72
2023/07/11 02:59:32;;;;;;;4.20;2.43;;;18.40;99.90;;;;;;5093231;28;20524;-72
2023/07/11 03:01:58;;;;;;;8.73;3.10;;;18.40;99.90;;;;;;5085403;28;20746;-73
2023/07/11 03:04:25;;;;;;;4.40;3.17;;;18.40;99.90;;;;;;5075187;28;20227;-73
2023/07/11 03:06:54;;;;;;;4.80;2.53;;;18.40;99.90;;;;;;5082128;28;20450;-73
2023/07/11 03:09:19;;;;;;;5.23;2.80;;;18.30;99.90;;;;;;5095061;28;20841;-73
2023/07/11 03:11:45;;;;;;;4.47;2.67;;;18.30;99.90;;;;;;5095270;28;20410;-73
2023/07/11 03:14:10;;;;;;;4.43;3.10;;;18.30;99.90;;;;;;5095426;28;20260;-73
2023/07/11 03:16:36;;;;;;;6.10;2.50;;;18.30;99.90;;;;;;5064442;28;20201;-73
2023/07/11 03:19:01;;;;;;;2.70;2.40;;;18.30;99.90;;;;;;5068091;28;20274;-72
2023/07/11 03:21:27;;;;;;;4.60;2.70;;;18.30;99.90;;;;;;5095486;28;20188;-72
2023/07/11 03:23:52;;;;;;;4.23;3.00;;;18.30;99.90;;;;;;5095146;28;20187;-72
2023/07/11 03:26:18;;;;;;;3.33;2.40;;;18.20;99.90;;;;;;5099402;28;20266;-72
2023/07/11 03:28:43;;;;;;;6.67;3.40;;;18.30;99.90;;;;;;5098417;28;20215;-73
2023/07/11 03:31:09;;;;;;;6.80;2.90;;;18.20;99.90;;;;;;5074516;28;20356;-72
2023/07/11 03:33:34;;;;;;;4.20;2.77;;;18.20;99.90;;;;;;5077372;28;20210;-72
2023/07/11 03:36:00;;;;;;;6.70;3.00;;;18.20;99.90;;;;;;5098782;28;20267;-72
2023/07/11 03:38:26;;;;;;;4.73;2.80;;;18.20;99.90;;;;;;5098604;28;20601;-72
2023/07/11 03:40:51;;;;;;;4.27;2.90;;;18.20;99.90;;;;;;5098144;28;20371;-72
2023/07/11 03:43:17;;;;;;;5.53;2.90;;;18.20;99.90;;;;;;5098360;28;20186;-72
2023/07/11 03:45:46;;;;;;;4.77;3.00;;;18.20;99.90;;;;;;5085019;28;20204;-72
2023/07/11 03:48:14;;;;;;;5.90;2.93;;;18.20;99.90;;;;;;5098497;28;20235;-71
2023/07/11 03:50:39;;;;;;;4.00;3.10;;;18.20;99.90;;;;;;5097926;28;20422;-72
2023/07/11 03:53:05;;;;;;;4.43;2.93;;;18.20;99.90;;;;;;5098499;28;20413;-72
2023/07/11 03:55:30;;;;;;;7.40;3.33;;;18.20;99.90;;;;;;5103016;28;20164;-71
2023/07/11 03:57:56;;;;;;;4.07;2.90;;;18.20;99.90;;;;;;5103089;28;20646;-71
2023/07/11 04:00:21;;;;;;;3.33;2.80;;;18.30;99.90;;;;;;5087147;28;20219;-72
2023/07/11 04:02:47;;;;;;;7.23;2.47;;;18.30;99.90;;;;;;5075042;28;20226;-73
2023/07/11 04:05:12;;;;;;;4.57;2.83;;;18.30;99.90;;;;;;5078585;28;20618;-72
2023/07/11 04:07:38;;;;;;;3.40;2.73;;;18.30;99.90;;;;;;5091065;28;20682;-73
2023/07/11 04:10:07;;;;;;;6.60;3.00;;;18.40;99.90;;;;;;5098006;28;20218;-72
2023/07/11 04:12:33;;;;;;;4.03;2.90;;;18.40;99.90;;;;;;5098569;28;20593;-73
2023/07/11 04:14:58;;;;;;;3.20;2.47;;;18.40;99.90;;;;;;5087862;28;20504;-73
2023/07/11 04:17:25;;;;;;;3.30;2.87;;;18.50;99.90;;;;;;5083925;28;20192;-73
2023/07/11 04:19:51;;;;;;;4.60;3.03;;;18.50;99.90;;;;;;5098320;28;20618;-72
2023/07/11 04:22:17;;;;;;;3.50;2.57;;;18.60;99.90;;;;;;5099276;28;20435;-72
2023/07/11 04:24:43;;;;;;;4.30;3.47;;;18.60;99.90;;;;;;5098627;28;20184;-72
2023/07/11 04:27:08;;;;;;;3.00;2.60;;;18.70;99.90;;;;;;5097932;28;20509;-72
2023/07/11 04:29:35;;;;;;;5.57;2.73;;;18.70;99.90;;;;;;5095777;28;20420;-72
2023/07/11 04:32:00;;;;;;;4.30;3.03;;;18.80;99.90;;;;;;5085078;28;20559;-72
2023/07/11 04:34:26;;;;;;;3.83;2.90;;;18.80;99.90;;;;;;5097994;28;20430;-71
2023/07/11 04:36:51;;;;;;;3.20;2.57;;;18.90;99.90;;;;;;5097559;28;20199;-73
2023/07/11 04:39:18;;;;;;;4.73;3.20;;;18.90;99.90;;;;;;5079482;28;20323;-72
2023/07/11 04:41:43;;;;;;;4.60;2.90;;;18.90;99.90;;;;;;5097373;28;20502;-72
2023/07/11 04:44:09;;;;;;;5.40;3.07;;;19.00;99.90;;;;;;5098068;28;20402;-72
2023/07/11 04:46:34;;;;;;;3.87;2.43;;;19.00;99.90;;;;;;5066238;28;20580;-73
2023/07/11 04:49:00;;;;;;;5.60;3.17;;;19.10;99.90;;;;;;5085733;28;20294;-72
2023/07/11 04:51:25;;;;;;;4.57;2.83;;;19.20;99.90;;;;;;5079276;28;20646;-72
2023/07/11 04:53:51;;;;;;;2.90;2.40;;;19.30;99.90;;;;;;5099010;28;20574;-71
2023/07/11 04:56:16;;;;;;;4.20;2.80;;;19.60;99.90;;;;;;5098226;28;20183;-77
2023/07/11 04:58:42;;;;;;;4.17;3.17;;;20.30;99.90;;;;;;5097831;28;20450;-74
2023/07/11 05:01:15;;;;;;;5.97;2.83;;;20.90;99.10;;;;;;5071415;28;20224;-76
2023/07/11 05:03:41;;;;;;;5.17;2.90;;;21.60;94.80;;;;;;5087388;28;20252;-76
2023/07/11 05:06:08;;;;;;;4.80;3.57;;;22.10;90.30;;;;;;5101724;28;20426;-78
2023/07/11 05:08:35;;;;;;;6.00;3.17;;;22.60;84.70;;;;;;5102765;28;20456;-77
2023/07/11 05:11:07;;;;;;;6.50;3.50;;;23.00;78.80;;;;;;5101451;28;20429;-76
2023/07/11 05:13:34;;;;;;;4.60;2.83;;;23.30;75.70;;;;;;5102753;28;20491;-73
2023/07/11 05:16:08;;;;;;;4.73;3.30;;;23.60;73.50;;;;;;5048538;28;20433;-75
2023/07/11 05:18:34;;;;;;;7.13;3.23;;;23.90;70.00;;;;;;5101574;28;20634;-73
2023/07/11 05:21:00;;;;;;;3.33;2.47;;;24.10;67.40;;;;;;5102983;28;20438;-74
2023/07/11 05:23:29;;;;;;;3.03;2.43;;;24.30;66.00;;;;;;5086148;28;20418;-72
2023/07/11 05:25:55;;;;;;;4.20;2.83;;;24.50;64.50;;;;;;5107106;28;20411;-72
2023/07/11 05:28:22;;;;;;;3.10;2.57;;;24.70;63.60;;;;;;5105876;28;20468;-75
2023/07/11 05:30:48;;;;;;;2.27;2.00;;;25.00;62.20;;;;;;5071634;28;20463;-74
2023/07/11 05:33:15;;;;;;;3.67;2.80;;;25.20;61.30;;;;;;5044875;28;20423;-75
2023/07/11 05:36:07;;;;;;;3.50;3.20;;;25.40;59.70;;;;;;5078102;28;20422;-73
2023/07/11 05:38:38;;;;;;;2.80;2.60;;;25.60;58.80;;;;;;5103070;28;20486;-74
2023/07/11 05:41:04;;;;;;;4.00;2.53;;;25.70;58.30;;;;;;5104044;28;20477;-74
2023/07/11 05:43:29;;;;;;;3.40;2.17;;;25.60;58.00;;;;;;5103392;28;20169;-71
2023/07/11 05:45:55;;;;;;;4.30;2.70;;;25.80;57.80;;;;;;5078774;28;20204;-79
2023/07/11 05:48:21;;;;;;;5.67;2.80;;;25.90;57.40;;;;;;5069885;28;20220;-74
2023/07/11 05:51:00;;;;;;;4.30;3.00;;;26.10;56.70;;;;;;5069500;28;20212;-76
2023/07/11 05:53:27;;;;;;;3.60;2.93;;;26.20;56.20;;;;;;5085355;28;20195;-76
2023/07/11 05:55:52;;;;;;;4.47;2.80;;;26.30;55.90;;;;;;5084636;28;20417;-75
2023/07/11 05:58:19;;;;;;;3.20;2.83;;;26.50;55.50;;;;;;5102769;28;20419;-75
2023/07/11 06:00:45;;;;;;;4.03;2.80;;;26.50;55.10;;;;;;5068527;28;20222;-74
2023/07/11 06:03:10;;;;;;;3.97;2.67;;;26.60;54.70;;;;;;5069668;28;20405;-77
2023/07/11 06:05:36;;;;;;;4.47;2.30;;;26.70;54.50;;;;;;5086504;28;20180;-75
2023/07/11 06:08:02;;;;;;;3.60;2.67;;;26.70;54.20;;;;;;5085697;28;20276;-72
2023/07/11 06:10:28;;;;;;;5.00;2.60;;;26.70;54.20;;;;;;5083564;28;20261;-74
2023/07/11 06:12:54;;;;;;;3.13;2.40;;;26.80;53.90;;;;;;5086241;28;20191;-73
2023/07/11 06:15:19;;;;;;;6.00;2.67;;;27.00;53.70;;;;;;5090749;28;20428;-74
2023/07/11 06:17:45;;;;;;;2.43;2.00;;;27.10;53.10;;;;;;5078643;28;20214;-74
2023/07/11 06:20:11;;;;;;;6.80;3.30;;;27.30;52.70;;;;;;5085110;28;20290;-75
2023/07/11 06:22:37;;;;;;;3.80;3.07;;;27.60;52.40;;;;;;5103949;28;20192;-74
2023/07/11 06:25:03;;;;;;;6.63;4.90;;;27.70;51.80;;;;;;5071086;28;20585;-75
2023/07/11 06:27:29;;;;;;;5.47;3.50;;;27.90;51.30;;;;;;5104099;28;20249;-75
2023/07/11 06:29:55;;;;;;;4.77;3.07;;;28.10;50.80;;;;;;5103019;28;20211;-76
2023/07/11 06:32:20;;;;;;;9.20;3.30;;;28.10;50.30;;;;;;5059643;28;20414;-76
2023/07/11 06:34:46;;;;;;;5.43;2.83;;;28.10;49.90;;;;;;5091836;28;20437;-76
2023/07/11 06:37:12;;;;;;;4.37;2.40;;;28.10;50.00;;;;;;5086255;28;20575;-78
2023/07/11 06:39:38;;;;;;;5.60;2.90;;;28.10;49.70;;;;;;5086641;28;20231;-78
2023/07/11 06:42:04;;;;;;;4.40;2.80;;;28.10;49.60;;;;;;5104911;28;20524;-74
2023/07/11 06:44:35;;;;;;;5.20;3.20;;;28.10;49.50;;;;;;5087227;28;20177;-77
2023/07/11 06:47:00;;;;;;;4.30;3.20;;;28.00;49.50;;;;;;5096404;28;20437;-74
2023/07/11 06:49:26;;;;;;;5.00;3.00;;;28.10;49.60;;;;;;5068037;28;20419;-74
2023/07/11 06:51:52;;;;;;;2.97;2.40;;;28.20;49.30;;;;;;5086653;28;20267;-76
2023/07/11 06:54:17;;;;;;;3.30;2.70;;;28.20;49.40;;;;;;5086638;28;20199;-76
2023/07/11 06:56:43;;;;;;;3.40;2.40;;;28.20;49.40;;;;;;5071241;28;20192;-75
2023/07/11 06:59:09;;;;;;;3.63;2.83;;;28.10;49.50;;;;;;5072413;28;20220;-76
2023/07/11 07:01:35;;;;;;;6.30;3.60;;;28.00;49.80;;;;;;5092796;28;20429;-75
2023/07/11 07:04:01;;;;;;;4.30;3.10;;;27.90;49.70;;;;;;5111038;28;20469;-78
2023/07/11 07:06:27;;;;;;;7.90;3.37;;;28.00;49.90;;;;;;5111633;28;20192;-75
2023/07/11 07:08:52;;;;;;;5.80;2.90;;;27.90;50.00;;;;;;5067127;28;20205;-75
2023/07/11 07:11:18;;;;;;;4.50;2.60;;;27.90;50.10;;;;;;5053650;28;20659;-75
2023/07/11 07:13:44;;;;;;;3.70;2.93;;;27.80;50.30;;;;;;5063434;28;20185;-78
2023/07/11 07:16:09;;;;;;;8.20;3.23;;;27.70;50.30;;;;;;5045595;28;20248;-77
2023/07/11 07:18:38;;;;;;;3.80;2.40;;;27.70;50.50;;;;;;5115089;28;20196;-76
2023/07/11 07:21:04;;;;;;;6.73;3.20;;;27.60;50.90;;;;;;5085089;28;20500;-76
2023/07/11 07:23:33;;;;;;;5.23;3.17;;;27.60;50.80;;;;;;5089924;28;20420;-75
2023/07/11 07:26:01;;;;;;;5.27;3.13;;;27.50;51.10;;;;;;5100068;28;20437;-75
2023/07/11 07:28:28;;;;;;;4.47;2.57;;;27.60;51.30;;;;;;5073311;28;20454;-75
2023/07/11 07:30:55;;;;;;;5.67;3.20;;;27.40;51.50;;;;;;5100572;28;20514;-77
2023/07/11 07:33:23;;;;;;;3.40;2.43;;;27.40;51.60;;;;;;5069730;28;20414;-76
2023/07/11 07:35:53;;;;;;;8.20;2.70;;;27.50;51.70;;;;;;5062402;28;20424;-77
2023/07/11 07:38:19;;;;;;;3.80;3.07;;;27.60;51.50;;;;;;5041058;28;20423;-77
2023/07/11 07:40:51;;;;;;;4.47;2.93;;;27.50;51.60;;;;;;5070972;28;20437;-78
2023/07/11 07:43:16;;;;;;;5.67;2.70;;;27.40;51.50;;;;;;5089334;28;20197;-75
2023/07/11 07:45:42;;;;;;;5.23;3.60;;;27.20;51.60;;;;;;5095278;28;20482;-76
2023/07/11 07:48:08;;;;;;;4.83;3.37;;;27.20;51.70;;;;;;5107468;28;20225;-76
2023/07/11 07:50:34;;;;;;;4.90;3.30;;;27.00;51.70;;;;;;5115560;28;20219;-77
2023/07/11 07:52:59;;;;;;;4.10;2.57;;;26.90;51.90;;;;;;5096181;28;20516;-74
2023/07/11 07:55:25;;;;;;;4.47;2.83;;;26.90;52.20;;;;;;5094491;28;20165;-75
2023/07/11 07:57:51;;;;;;;4.53;3.60;;;26.90;52.00;;;;;;5080130;28;20197;-76
2023/07/11 08:00:16;;;;;;;3.97;2.93;;;26.90;52.10;;;;;;5072049;28;20209;-73
2023/07/11 08:02:48;;;;;;;4.23;3.27;;;26.90;52.20;;;;;;5070136;28;20190;-75
2023/07/11 08:05:17;;;;;;;3.97;2.43;;;26.90;52.10;;;;;;5091057;28;20747;-74
2023/07/11 08:07:42;;;;;;;4.40;2.70;;;27.00;52.10;;;;;;5054525;28;20225;-75
2023/07/11 08:10:08;;;;;;;3.50;2.77;;;27.00;51.90;;;;;;5080934;28;20715;-75
2023/07/11 08:12:34;;;;;;;7.20;3.17;;;27.20;51.60;;;;;;5058021;28;20189;-74
2023/07/11 08:15:03;;;;;;;4.50;3.20;;;27.30;51.60;;;;;;5090956;28;20203;-74
2023/07/11 08:17:29;;;;;;;3.43;2.73;;;27.50;51.30;;;;;;5055440;28;20200;-74
2023/07/11 08:19:55;;;;;;;4.70;2.30;;;27.60;51.10;;;;;;5074000;28;20782;-75
2023/07/11 08:22:20;;;;;;;3.60;2.90;;;27.70;50.80;;;;;;5048571;28;20409;-74
2023/07/11 08:24:47;;;;;;;3.70;3.00;;;27.90;50.40;;;;;;5066782;28;20542;-75
2023/07/11 08:27:12;;;;;;;6.07;3.00;;;28.00;50.20;;;;;;5077533;28;20520;-73
2023/07/11 08:29:41;;;;;;;4.53;2.60;;;28.20;49.90;;;;;;5088793;28;20208;-74
2023/07/11 08:32:07;;;;;;;7.03;3.30;;;28.30;49.30;;;;;;5055456;28;20197;-76
2023/07/11 08:34:34;;;;;;;4.20;3.00;;;28.50;48.80;;;;;;5068064;28;20375;-75
2023/07/11 08:37:00;;;;;;;5.40;3.10;;;28.60;48.40;;;;;;5035745;28;20205;-73
2023/07/11 08:39:25;;;;;;;3.87;2.83;;;28.60;47.70;;;;;;5098259;28;20434;-78
2023/07/11 08:41:53;;;;;;;3.83;2.60;;;28.70;47.50;;;;;;5073824;28;20186;-74
2023/07/11 08:44:41;;;;;;;8.90;3.97;;;28.80;47.40;;;;;;5069331;28;20162;-76
2023/07/11 08:47:16;;;;;;;3.60;2.87;;;28.80;46.60;;;;;;5052849;28;20412;-76
2023/07/11 08:49:51;;;;;;;5.20;3.00;;;28.90;46.70;;;;;;5082826;28;20721;-75
2023/07/11 08:52:20;;;;;;;3.80;3.20;;;29.00;46.50;;;;;;5093137;28;20821;-77
2023/07/11 08:54:59;;;;;;;4.57;3.07;;;29.00;46.50;;;;;;5088904;28;20429;-75
2023/07/11 08:57:29;;;;;;;4.10;2.80;;;29.10;46.40;;;;;;5046393;28;20431;-73
2023/07/11 09:00:12;;;;;;;4.10;3.30;;;29.10;45.40;;;;;;5038824;28;20522;-73
2023/07/11 09:02:56;;;;;;;4.70;3.03;;;29.30;43.80;;;;;;5049730;28;20717;-75
2023/07/11 09:05:43;;;;;;;5.60;3.87;;;29.20;43.70;;;;;;5076825;28;20454;-75
2023/07/11 09:08:20;;;;;;;7.97;3.40;;;29.10;43.30;;;;;;5080268;28;20477;-77
2023/07/11 09:11:14;;;;;;;7.67;3.00;;;29.10;43.80;;;;;;5063262;28;20432;-75
2023/07/11 09:14:05;;;;;;;5.87;3.40;;;29.20;43.80;;;;;;5073375;28;20444;-77
2023/07/11 09:16:46;;;;;;;9.13;3.43;;;29.20;43.90;;;;;;5067300;28;20432;-76
2023/07/11 09:19:39;;;;;;;6.37;3.50;;;29.30;44.00;;;;;;5068419;28;20443;-76
2023/07/11 09:22:57;;;;;;;5.70;3.17;;;29.30;44.10;;;;;;5067866;28;20462;-76
2023/07/11 09:25:35;;;;;;;5.40;3.50;;;29.30;44.20;;;;;;4956765;28;20424;-76
2023/07/11 09:28:21;;;;;;;3.80;2.60;;;29.40;44.30;;;;;;5072771;28;20471;-76
2023/07/11 09:30:51;;;;;;;5.87;3.33;;;29.30;44.10;;;;;;5069907;28;20448;-75
2023/07/11 09:33:34;;;;;;;5.10;3.33;;;29.40;43.40;;;;;;5076235;28;20437;-77
2023/07/11 09:36:02;;;;;;;8.63;4.23;;;29.50;43.00;;;;;;5078516;28;20591;-78
2023/07/11 09:38:36;;;;;;;5.73;3.63;;;29.40;42.90;;;;;;5074368;28;20441;-77
2023/07/11 09:41:22;;;;;;;3.07;2.60;;;29.50;43.10;;;;;;5068429;28;20546;-78
2023/07/11 09:43:47;;;;;;;3.93;2.90;;;29.50;42.50;;;;;;5072797;28;20443;-77
2023/07/11 09:46:21;;;;;;;5.90;3.17;;;29.50;42.50;;;;;;5060911;28;20436;-79
2023/07/11 09:48:50;;;;;;;4.90;3.10;;;29.40;42.50;;;;;;5053092;28;20201;-76
2023/07/11 09:51:26;;;;;;;3.70;3.17;;;29.40;42.80;;;;;;5068452;28;20430;-77
2023/07/11 09:53:53;;;;;;;5.60;3.60;;;29.40;42.80;;;;;;5071097;28;20426;-76
2023/07/11 09:56:20;;;;;;;8.33;3.23;;;29.50;42.60;;;;;;5056012;28;20450;-75
2023/07/11 09:58:58;;;;;;;5.10;3.33;;;29.40;42.40;;;;;;5071104;28;20490;-75
2023/07/11 10:01:32;;;;;;;5.00;3.37;;;29.30;42.70;;;;;;5049277;28;20433;-77
2023/07/11 10:04:00;;;;;;;5.07;3.37;;;29.30;43.00;;;;;;5074700;28;20476;-76
2023/07/11 10:06:37;;;;;;;6.30;3.07;;;29.30;42.90;;;;;;5064571;28;20424;-76
2023/07/11 10:09:27;;;;;;;3.60;3.13;;;29.20;42.80;;;;;;5055082;28;20437;-75
2023/07/11 10:11:56;;;;;;;3.57;3.00;;;29.30;42.90;;;;;;5069035;28;20470;-75
2023/07/11 10:14:27;;;;;;;4.30;3.90;;;29.40;42.70;;;;;;5091087;28;20383;-76
2023/07/11 10:16:55;;;;;;;5.60;3.53;;;29.50;42.20;;;;;;5072574;28;20390;-76
2023/07/11 10:19:20;;;;;;;5.30;4.10;;;29.50;42.40;;;;;;5090412;28;20453;-77
2023/07/11 10:21:51;;;;;;;7.03;3.60;;;29.60;41.90;;;;;;5073234;28;20418;-75
2023/07/11 10:24:25;;;;;;;5.47;3.10;;;29.80;41.80;;;;;;5085107;28;20157;-77
2023/07/11 10:27:01;;;;;;;3.40;3.10;;;29.90;41.20;;;;;;5048733;28;20408;-75
2023/07/11 10:29:40;;;;;;;4.60;3.50;;;29.90;41.40;;;;;;5068269;28;20440;-76
2023/07/11 10:32:12;;;;;;;4.50;3.47;;;29.90;41.40;;;;;;5067494;28;20438;-76
2023/07/11 10:34:48;;;;;;;3.47;3.10;;;29.80;41.70;;;;;;5049668;28;20417;-76
2023/07/11 10:37:24;;;;;;;3.20;2.70;;;29.80;41.90;;;;;;5059529;28;20430;-77
2023/07/11 10:39:53;;;;;;;7.00;4.07;;;29.90;41.90;;;;;;5082571;28;20881;-76
2023/07/11 10:42:43;;;;;;;4.80;3.40;;;30.20;41.30;;;;;;5077886;28;20428;-77
2023/07/11 10:45:23;;;;;;;3.97;3.50;;;30.30;41.50;;;;;;5074327;28;20380;-77
2023/07/11 10:48:12;;;;;;;3.90;3.37;;;30.40;41.50;;;;;;5048418;28;20452;-76
2023/07/11 10:50:44;;;;;;;4.67;3.60;;;30.50;41.50;;;;;;5083028;28;20496;-77
2023/07/11 10:53:41;;;;;;;5.10;3.80;;;30.50;41.40;;;;;;5089181;28;20727;-74
2023/07/11 10:56:23;;;;;;;3.77;3.17;;;30.60;40.70;;;;;;5069884;28;20495;-78
2023/07/11 10:58:49;;;;;;;5.77;3.80;;;30.60;40.80;;;;;;5083051;28;20430;-80
2023/07/11 11:01:34;;;;;;;4.50;3.40;;;30.60;40.70;;;;;;5057549;28;20419;-78
2023/07/11 11:04:08;;;;;;;6.40;3.33;;;30.50;41.10;;;;;;5069854;28;20456;-77
2023/07/11 11:07:08;;;;;;;5.17;4.03;;;30.40;40.50;;;;;;5064121;28;20429;-79
2023/07/11 11:09:47;;;;;;;4.80;3.70;;;30.50;40.20;;;;;;5051455;28;20763;-75
2023/07/11 11:12:35;;;;;;;5.20;3.80;;;30.60;39.10;;;;;;5064440;28;20470;-77
2023/07/11 11:15:15;;;;;;;4.80;4.20;;;30.60;38.10;;;;;;5088129;28;20438;-78
2023/07/11 11:18:20;;;;;;;5.13;4.10;;;30.60;38.30;;;;;;5052072;28;20419;-77
2023/07/11 11:21:16;;;;;;;5.10;4.10;;;30.70;38.00;;;;;;5069380;28;20431;-78
2023/07/11 11:23:47;;;;;;;6.20;5.10;;;30.80;37.60;;;;;;5086877;28;20425;-78
2023/07/11 11:26:28;;;;;;;5.80;4.67;;;31.00;37.20;;;;;;5097042;28;20418;-77
2023/07/11 11:29:08;;;;;;;5.07;4.50;;;31.10;36.90;;;;;;5073331;28;20515;-76
2023/07/11 11:31:45;;;;;;;6.07;4.40;;;31.10;36.10;;;;;;5090847;28;20457;-78
2023/07/11 11:34:29;;;;;;;6.50;4.90;;;31.20;36.50;;;;;;5090831;28;20410;-78
2023/07/11 11:37:10;;;;;;;9.50;5.03;;;31.10;35.90;;;;;;5056404;28;20431;-77
2023/07/11 11:39:58;;;;;;;8.10;4.97;;;31.10;35.90;;;;;;5078065;28;20455;-73
2023/07/11 11:42:30;;;;;;;5.10;4.60;;;31.20;35.90;;;;;;5082701;28;20423;-74
2023/07/11 11:45:10;;;;;;;5.20;4.70;;;31.30;35.90;;;;;;5060711;28;20426;-76
2023/07/11 11:47:37;;;;;;;4.73;4.33;;;31.40;35.80;;;;;;5050323;28;20747;-76
2023/07/11 11:50:05;;;;;;;4.90;4.40;;;31.40;35.70;;;;;;5069503;28;20432;-76
2023/07/11 11:52:33;;;;;;;4.63;4.10;;;31.50;35.40;;;;;;5092740;28;20448;-77
2023/07/11 11:54:59;;;;;;;4.90;4.30;;;31.50;35.70;;;;;;5110719;28;20414;-73
2023/07/11 11:57:30;;;;;;;5.63;4.40;;;31.30;35.40;;;;;;5078934;28;20416;-77
2023/07/11 11:59:57;;;;;;;5.77;4.60;;;31.30;35.90;;;;;;5052904;28;20225;-77
2023/07/11 12:02:34;;;;;;;7.07;5.17;;;31.30;36.00;;;;;;5055571;28;20407;-75
2023/07/11 12:05:09;;;;;;;5.70;4.50;;;31.30;35.70;;;;;;5081280;28;20461;-76
2023/07/11 12:07:37;;;;;;;8.00;5.40;;;31.30;35.90;;;;;;5073378;28;20534;-77
2023/07/11 12:10:08;;;;;;;4.80;4.37;;;31.30;35.90;;;;;;5088794;28;20448;-73
2023/07/11 12:12:34;;;;;;;5.90;4.03;;;31.40;35.70;;;;;;5092155;28;20427;-76
2023/07/11 12:15:18;;;;;;;5.63;5.13;;;31.50;35.50;;;;;;5068865;28;20441;-75
2023/07/11 12:17:46;;;;;;;7.40;5.93;;;31.60;34.80;;;;;;5054906;28;20189;-74
2023/07/11 12:20:18;;;;;;;7.67;5.57;;;31.70;34.40;;;;;;5053080;28;20436;-77
2023/07/11 12:22:45;;;;;;;8.33;6.80;;;31.80;34.10;;;;;;5063929;28;20438;-77
2023/07/11 12:25:21;;;;;;;7.43;4.87;;;31.70;34.00;;;;;;5092337;28;20414;-78
2023/07/11 12:27:53;;;;;;;9.87;5.70;;;31.70;34.20;;;;;;5053767;28;20436;-77
2023/07/11 12:30:31;;;;;;;5.83;5.23;;;31.70;33.10;;;;;;5076294;28;20447;-78
2023/07/11 12:33:14;;;;;;;7.80;4.73;;;31.60;33.50;;;;;;5056879;28;20422;-75
2023/07/11 12:35:42;;;;;;;4.73;4.17;;;31.60;33.60;;;;;;5035005;28;20531;-77
2023/07/11 12:38:14;;;;;;;8.67;5.80;;;31.60;33.50;;;;;;5037014;28;20411;-80
2023/07/11 12:41:16;;;;;;;10.17;6.00;;;31.60;33.00;;;;;;5080413;28;20430;-77
2023/07/11 12:43:46;;;;;;;6.77;5.53;;;31.60;32.30;;;;;;5081557;28;20522;-77
2023/07/11 12:46:35;;;;;;;6.40;5.80;;;31.70;32.10;;;;;;5061281;28;20396;-77
2023/07/11 12:49:03;;;;;;;6.33;5.30;;;31.90;32.40;;;;;;5067479;28;20435;-75
2023/07/11 12:51:36;;;;;;;6.67;5.67;;;32.10;32.50;;;;;;5050022;28;20699;-75
2023/07/11 12:54:14;;;;;;;5.57;4.73;;;32.10;32.20;;;;;;5061787;28;20438;-77
2023/07/11 12:56:45;;;;;;;8.73;5.93;;;32.20;32.30;;;;;;5062669;28;20428;-76
2023/07/11 12:59:22;;;;;;;5.57;4.73;;;32.20;32.10;;;;;;5082152;28;20482;-75
2023/07/11 13:01:53;;;;;;;5.50;4.93;;;32.10;32.30;;;;;;5076901;28;20393;-75